Sonic Adventure (DX): Overall Rankings

Records: Times | Rings | Scores | Races | Bosses | Freestyle
Leaders: Times | Rings | Scores | Races | Bosses | Freestyle | Overall
Rank Player Percent Points Date Grade
1 Sonicspeedruner 98.4% 256 05-28-15 S
2 Gamepro011 97.6% 384 05-28-15 A
3 DarkPolarNight 96.2% 603 05-28-15 A
4 Jawzun 93.9% 993 05-28-15 A
5 Dashjump 91.7% 1340 05-28-15 A
6 DarkspinesSonic 90.7% 1498 05-28-15 A
7 Avento128bits 90.3% 1573 05-28-15 A
8 ike6252 90.1% 1606 05-28-15 A
9 F-Man 86.0% 2277 05-28-15 A
10 HyperSonic7701 85.1% 2425 05-28-15 A
11 Coolfansonic 83.9% 2608 05-28-15 A
12 yoshifan 83.4% 2687 05-28-15 A
13 frankoredstrato 83.0% 2754 05-28-15 A
14 TheRealShadnic 82.0% 2915 05-28-15 A
15 francisco 82.0% 2916 05-28-15 A
16 Marth 81.7% 2970 05-28-15 A
17 InferSaime 80.4% 3187 05-28-15 A
18 PfoSonic 80.0% 3251 05-28-15 A
19 Paragod 79.5% 3332 05-28-15 B
20 THC98 78.3% 3518 05-28-15 B
21 Stefan 76.2% 3864 05-28-15 B
22 RPGnutter 73.9% 4236 05-28-15 B
23 bertin 73.9% 4242 05-28-15 B
24 sonicam 71.6% 4612 05-28-15 B
25 Combo 65.6% 5593 05-28-15 B
26 SkyLights 64.4% 5783 05-28-15 B
27 xXMegaManXx 63.6% 5921 05-28-15 B
28 Diamond 62.8% 6054 05-28-15 B
29 GerbilSoft 60.3% 6456 05-28-15 B
30 OmegaDJ 60.3% 6460 05-28-15 B
31 Auriman1 60.2% 6473 05-28-15 B
32 drminus 59.6% 6563 05-28-15 C
33 magnum12 59.3% 6622 05-28-15 C
34 Dawid8404 59.1% 6648 05-28-15 C
35 Thorn 57.2% 6958 05-28-15 C
36 P1 Pause 56.9% 7001 05-28-15 C
37 mike89 55.7% 7200 05-28-15 C
38 chainchumper 54.0% 7474 05-28-15 C
39 Groudon199 53.9% 7504 05-28-15 C
40 Dave Cramer 53.8% 7506 05-28-15 C
41 Parax 53.3% 7592 05-28-15 C
42 Shadow Jacky 52.7% 7686 05-28-15 C
43 Psymar 47.6% 8527 05-28-15 C
44 Chao_Fan 45.8% 8822 05-28-15 C
45 Arch 45.5% 8860 05-28-15 C
46 mauserman 45.4% 8880 05-28-15 C
47 Quartz 44.6% 9003 05-28-15 C
48 teamblackarms 43.6% 9170 05-28-15 C
49 Psyknux 43.5% 9192 05-28-15 C
50 James_Bertolli 42.9% 9293 05-28-15 C
51 NintenDan 42.3% 9382 05-28-15 C
52 Fr3nZy 41.8% 9473 05-28-15 C
53 Webber3000 41.8% 9474 05-28-15 C
54 Turbos 41.6% 9496 05-28-15 C
55 Ring Rush 41.6% 9505 05-28-15 C
56 Cream147 41.3% 9544 05-28-15 C
57 videogamemaster777 41.2% 9558 05-28-15 C
58 Siavash Tazari 41.0% 9596 05-28-15 C
59 buddychaos0415 40.5% 9673 05-28-15 C
60 SadisticMystic 39.9% 9778 05-28-15 D
61 eggFL 39.0% 9916 05-28-15 D
62 Redd 38.6% 9989 05-28-15 D
63 SB737 37.4% 10177 05-28-15 D
64 supersonicfan 36.2% 10370 05-28-15 D
65 FuzZerd 35.2% 10533 05-28-15 D
66 elecmouse101 34.5% 10656 05-28-15 D
67 supersonic465 34.4% 10678 05-28-15 D
68 Austinf 33.6% 10797 05-28-15 D
69 metanightmare22 32.9% 10923 05-28-15 D
70 Aitamen 32.8% 10924 05-28-15 D
71 dabestgamer 32.7% 10948 05-28-15 D
72 MiStEr_ShAoLiN 32.6% 10967 05-28-15 D
73 Cyan Ryan 32.5% 10974 05-28-15 D
74 itsPersonnal 31.8% 11094 05-28-15 D
75 Cybrax 30.9% 11242 05-28-15 D
76 Andrea Ritsu 30.6% 11295 05-28-15 D
77 danieldude 30.5% 11312 05-28-15 D
78 SilvertheAlmighty 30.4% 11321 05-28-15 D
79 VMU Player Banned 28.8% 11583 05-28-15 D
80 Omega Rafael Santos 28.4% 11642 05-28-15 D
81 Staf 28.1% 11695 05-28-15 D
82 The T 27.9% 11728 05-28-15 D
83 EngiNerd 27.6% 11778 05-28-15 D
84 lordmetalsonic 26.9% 11899 05-28-15 D
85 Hipertails12 26.7% 11919 05-28-15 D
86 welldooder64 26.2% 12006 05-28-15 D
87 GreatStar 26.2% 12008 05-28-15 D
88 Sondow 26.2% 12010 05-28-15 D
89 The Great Lord Mick 25.9% 12057 05-28-15 D
90 Mastakirby 25.8% 12063 05-28-15 D
91 LinksDarkArrows 25.7% 12087 05-28-15 D
92 Nimrod 25.4% 12129 05-28-15 D
93 Skylace 24.8% 12239 05-28-15 D
94 Rolken 23.3% 12472 05-28-15 D
95 Xia 21.8% 12725 05-28-15 D
96 Kogen Player Banned 21.7% 12737 05-28-15 D
97 Spinballwizard 21.6% 12756 05-28-15 D
98 Don 21.3% 12797 05-28-15 D
99 Miles9999 21.2% 12813 05-28-15 D
100 Cutiefox 21.2% 12816 05-28-15 D
101 f0rever_zer0 21.1% 12842 05-28-15 D
102 Game_Complete 21.0% 12847 05-28-15 D
103 andres430 20.4% 12952 05-28-15 D
104 Cruizer 20.3% 12964 05-28-15 D
105 iSonicKid2K 20.1% 12999 05-28-15 D
106 SADXTryHard 19.7% 13059 05-28-15 E
107 GarnetPrincess 19.4% 13117 05-28-15 E
108 knuckles_sonic8 18.8% 13213 05-28-15 E
109 Team_Yoshi 18.3% 13296 05-28-15 E
110 KinkyCadence 18.0% 13340 05-28-15 E
111 The Knuckles Chao 17.8% 13376 05-28-15 E
112 Termon 17.7% 13393 05-28-15 E
113 FoxBoy 17.6% 13402 05-28-15 E
114 a_moustache 17.6% 13409 05-28-15 E
115 LittleBigness 17.4% 13432 05-28-15 E
116 SonicWinDX 17.4% 13435 05-28-15 E
117 Sonic Singularity 15.5% 13746 05-28-15 E
118 Pokemonmaster888 15.5% 13754 05-28-15 E
119 BigAL49 14.5% 13918 05-28-15 E
120 SilverSonic 14.3% 13949 05-28-15 E
121 MPit08 14.2% 13960 05-28-15 E
122 WeegeeZV 14.1% 13982 05-28-15 E
123 Mo Player Banned 14.0% 13988 05-28-15 E
124 Cod4Scopes 13.4% 14084 05-28-15 E
125 HyperSonic64 13.2% 14115 05-28-15 E
126 booo95 13.2% 14128 05-28-15 E
127 Chawkk 13.1% 14146 05-28-15 E
128 paulie9990 13.0% 14162 05-28-15 E
129 Hunters13 12.9% 14174 05-28-15 E
130 SuperSonic101 12.9% 14176 05-28-15 E
131 Maxinfamily 12.6% 14213 05-28-15 E
132 Flying Fox 12.5% 14243 05-28-15 E
133 PsyBorg 12.4% 14245 05-28-15 E
134 Kanimayo_Jp 12.4% 14250 05-28-15 E
135 BrokenArthritis 12.3% 14266 05-28-15 E
136 LilZero 12.1% 14299 05-28-15 E
137 Therio 11.7% 14362 05-28-15 E
138 Drakodan 11.7% 14373 05-28-15 E
139 sonicspeed 11.6% 14379 05-28-15 E
140 douglas 11.5% 14403 05-28-15 E
141 Matt_TY 11.1% 14457 05-28-15 E
142 joecoolgames 10.5% 14556 05-28-15 E
143 Cooljay 10.5% 14558 05-28-15 E
144 SeaWolf 10.4% 14574 05-28-15 E
145 TFEC Headshot 9.9% 14658 05-28-15 E
146 welshmoose05 9.8% 14677 05-28-15 E
147 crazy1993 9.5% 14717 05-28-15 E
148 Mcshuggets 9.5% 14721 05-28-15 E
149 videogamer1014 9.2% 14770 05-28-15 E
150 imazor017 9.2% 14778 05-28-15 E
151 nuckrieg 9.0% 14798 05-28-15 E
152 niscool 9.0% 14808 05-28-15 E
153 SonicAD 9.0% 14809 05-28-15 E
154 SirTobbii 8.9% 14826 05-28-15 E
155 Shadowthegreat 8.7% 14854 05-28-15 E
155 superjupi 8.7% 14854 05-28-15 E
157 SaviourDC 8.4% 14901 05-28-15 E
158 iarebored 8.4% 14906 05-28-15 E
159 sonamyfan666 8.3% 14918 05-28-15 E
160 Werey 8.2% 14929 05-28-15 E
161 SonicKnuckles 8.2% 14942 05-28-15 E
162 adf 7.9% 14989 05-28-15 E
163 ArcticDragon 7.8% 14997 05-28-15 E
164 Megaman EXE565 7.7% 15017 05-28-15 E
165 Platformer 7.4% 15071 05-28-15 E
166 Mariobutch 7.4% 15074 05-28-15 E
167 FocusSight64 7.3% 15083 05-28-15 E
168 wheatrich 7.2% 15101 05-28-15 E
169 timpkmn89 7.2% 15104 05-28-15 E
170 Swift Hobo 7.1% 15108 05-28-15 E
171 Rickyman48 7.0% 15127 05-28-15 E
172 KitsuneYamaro 6.7% 15175 05-28-15 E
173 Triseena 6.6% 15194 05-28-15 E
174 CyberShadow 6.5% 15218 05-28-15 E
175 slade23 6.4% 15235 05-28-15 E
176 dShadow 6.4% 15237 05-28-15 E
177 Starlight Sable 6.3% 15238 05-28-15 E
178 IsisDazs 6.2% 15266 05-28-15 E
179 BlankTH 6.0% 15292 05-28-15 E
180 Monkeh 5.8% 15334 05-28-15 E
181 Richied 5.7% 15342 05-28-15 E
182 DaDude 5.6% 15362 05-28-15 E
183 sonicd5 5.5% 15380 05-28-15 E
184 Zip 5.4% 15386 05-28-15 E
185 Kirbymon30 5.1% 15438 05-28-15 E
185 tal39h 5.1% 15438 05-28-15 E
187 ethmar 4.9% 15480 05-28-15 E
188 soniccoloursunleashed 4.8% 15488 05-28-15 E
189 Drflash55 4.8% 15492 05-28-15 E
190 Yish 4.6% 15516 05-28-15 E
191 neaolas 4.6% 15520 05-28-15 E
192 Bass 4.6% 15521 05-28-15 E
193 UninspiredUsername 4.5% 15536 05-28-15 E
194 superiorsonic 4.5% 15537 05-28-15 E
195 Sonicsuperstar1 4.5% 15538 05-28-15 E
196 zapp 4.5% 15545 05-28-15 E
197 gamefreak1292 4.4% 15557 05-28-15 E
198 SonicU260 4.1% 15608 05-28-15 E
199 Chaos_Overlord 4.1% 15610 05-28-15 E
200 TakaRikka 4.0% 15625 05-28-15 E
201 Valfore 3.9% 15633 05-28-15 E
202 ShinigamiMachine 3.8% 15656 05-28-15 E
203 Regano1000 3.7% 15671 05-28-15 E
204 MK 3.6% 15686 05-28-15 E
205 Ace747 3.5% 15699 05-28-15 E
206 Illidan 3.2% 15746 05-28-15 E
207 HHNNBBHHN 3.2% 15758 05-28-15 E
208 Venick409 3.1% 15761 05-28-15 E
209 Brian_pso 3.1% 15772 05-28-15 E
210 Sithwarrior26 3.0% 15779 05-28-15 E
211 ingx24 2.9% 15798 05-28-15 E
211 TheChaosEmeraIds 2.9% 15798 05-28-15 E
213 SkyBon 2.8% 15809 05-28-15 E
214 Nickson98 2.8% 15810 05-28-15 E
215 FSSRandomvids 2.7% 15824 05-28-15 E
216 Fozer 2.7% 15825 05-28-15 E
217 sonic29887 2.7% 15829 05-28-15 E
218 Colomb_30 2.7% 15833 05-28-15 E
219 TheUltraBlur 2.6% 15847 05-28-15 E
220 1stKirbyever 2.5% 15860 05-28-15 E
221 Th4tN1nj4Turtl3 2.3% 15892 05-28-15 E
222 Cort_pso 2.3% 15894 05-28-15 E
223 Doom-9 2.3% 15901 05-28-15 E
224 ieatatsonic 2.2% 15908 05-28-15 E
225 Mariosonic15 2.2% 15911 05-28-15 E
226 SuperSonic71087 2.2% 15919 05-28-15 E
227 MStitomix 2.1% 15926 05-28-15 E
228 HermitHelmet 2.1% 15933 05-28-15 E
229 Artie 2.0% 15945 05-28-15 E
230 Got4n 2.0% 15946 05-28-15 E
231 Questionguy555 2.0% 15952 05-28-15 E
232 Jose_15 1.9% 15956 05-28-15 E
233 djmat 1.8% 15970 05-28-15 E
234 sonicandamy 1.7% 15987 05-28-15 E
235 SuperSonicfan9595 1.7% 15989 05-28-15 E
236 LancexExWx 1.7% 15995 05-28-15 E
237 son1cgu1tar 1.7% 15999 05-28-15 E
238 Heroes_Hater 1.7% 16000 05-28-15 E
239 Paixii 1.6% 16004 05-28-15 E
240 BallzeH 1.5% 16021 05-28-15 E
241 Mankster101 1.5% 16026 05-28-15 E
242 BecauseWarAnvil 1.5% 16031 05-28-15 E
242 Jamixesa 1.5% 16031 05-28-15 E
244 Crydio 1.4% 16036 05-28-15 E
245 Shanekilz 1.4% 16040 05-28-15 E
246 SpiritDragon1995 1.4% 16041 05-28-15 E
247 ReuelBrony 1.4% 16049 05-28-15 E
248 stanski 1.3% 16055 05-28-15 E
249 MarewBFN 1.3% 16058 05-28-15 E
250 Sonique Hedgehog 1.3% 16063 05-28-15 E
251 Blue Infamy 1.2% 16071 05-28-15 E
252 p0ker 1.2% 16072 05-28-15 E
253 ErrortheCucco 1.2% 16081 05-28-15 E
254 Arthas 1.2% 16083 05-28-15 E
255 Rikum22 1.1% 16084 05-28-15 E
256 sonic1001 1.1% 16092 05-28-15 E
257 WingedInsignia 1.1% 16095 05-28-15 E
258 syco1098 1.1% 16099 05-28-15 E
259 AJSIV 1.0% 16102 05-28-15 E
260 Sonic the Hedgehod16 1.0% 16104 05-28-15 E
261 sonicfan9 1.0% 16106 05-28-15 E
262 Calfd 1.0% 16108 05-28-15 E
263 BlackArmsShadow 0.9% 16119 05-28-15 E
264 themachoman202 0.9% 16124 05-28-15 E
265 Ben1502 0.9% 16130 05-28-15 E
265 Greham Adelphis 0.9% 16130 05-28-15 E
267 MastaToken 0.9% 16131 05-28-15 E
268 shadowblast63 Player Banned 0.9% 16132 05-28-15 E
269 Fivavoa 0.8% 16133 05-28-15 E
270 Mr. Jones 0.8% 16134 05-28-15 E
271 arcfx1985 0.8% 16136 05-28-15 E
271 darkstarblaze 0.8% 16136 05-28-15 E
271 ptorflaxendrosis 0.8% 16136 05-28-15 E
274 Gvozdevik 0.8% 16140 05-28-15 E
274 Knuckles 0.8% 16140 05-28-15 E
276 FlandreScarlet9999vr 0.8% 16141 05-28-15 E
277 Zeldocto 0.8% 16146 05-28-15 E
278 KaM Mark MaK 0.7% 16150 05-28-15 E
279 BeeAwwb 0.7% 16154 05-28-15 E
280 ShadouZaHejjihoggu 0.7% 16157 05-28-15 E
281 Sonic62 0.7% 16162 05-28-15 E
282 Sogeking 0.7% 16165 05-28-15 E
283 darkersupershadic 0.6% 16166 05-28-15 E
284 Shadygamerfreak 0.6% 16169 05-28-15 E
285 dragondragon18 0.6% 16170 05-28-15 E
286 Sarger001 0.6% 16171 05-28-15 E
286 SonicK100 0.6% 16171 05-28-15 E
288 Grady219 0.6% 16172 05-28-15 E
289 Jawaah 0.6% 16176 05-28-15 E
290 Antek 0.6% 16181 05-28-15 E
290 SilverK 0.6% 16181 05-28-15 E
292 Klaus 0.5% 16183 05-28-15 E
293 SpinDashMaster 0.5% 16186 05-28-15 E
294 BioShadow 0.5% 16187 05-28-15 E
295 Videogamer123 0.5% 16191 05-28-15 E
296 Egor305 0.4% 16206 05-28-15 E
296 oTaiIilLsS 0.4% 16206 05-28-15 E
298 Mad Andy 0.4% 16207 05-28-15 E
299 isaihtb11 0.4% 16208 05-28-15 E
300 OhNoes! 0.4% 16209 05-28-15 E
301 zaktu40 0.4% 16210 05-28-15 E
302 S-MS32X-S 0.4% 16212 05-28-15 E
303 gaara1234 0.4% 16213 05-28-15 E
304 gamed00d 0.3% 16214 05-28-15 E
305 Mister_Slick 0.3% 16224 05-28-15 E
306 Sonic06Fan 0.3% 16226 05-28-15 E
307 Rush Hero 0.3% 16227 05-28-15 E
308 SonicMega167 0.3% 16230 05-28-15 E
309 Iwannabelink 0.2% 16231 05-28-15 E
310 sonknuck23 0.2% 16236 05-28-15 E
311 DanielTheFalcon 0.2% 16241 05-28-15 E
311 gamer1245 0.2% 16241 05-28-15 E
313 Burningskull123 0.1% 16249 05-28-15 E
314 Sonicontherun 0.1% 16259 05-28-15 E
315 Lil_Dude 0.0% 16263 05-28-15 E
316 antiwwe 0.0% 16265 05-28-15 E
317 Cbwade15 0.0% 16269 05-28-15 E
317 Genuine Hedgehog 0.0% 16269 05-28-15 E
319 Tyrouble 0.0% 16272 05-28-15 E
320 MegabombBlade 0.0% 16279 05-28-15 E
320 neji_hyuuga 0.0% 16279 05-28-15 E
320 Over 0.0% 16279 05-28-15 E
320 sdj6707 Player Banned 0.0% 16279 05-28-15 E
320 Tran Sonic Fan Player Banned 0.0% 16279 05-28-15 E

This page is using the New Data Table System. [FUTURE]


-- Back to Normal Skin --
Game ID: 3 | Category ID: 10
Hits: 63,485 | Hits This Month: 300 | DB Calls: 16 | Mem Usage: 5.44 MB | Time: 0.14s | Printable

The Sonic Center v3.9
Copyright 2003-2011 by The Sonic Center Team.